Time,TemperatureF,DewpointF,PressureIn,WindDirection,WindDirectionDegrees,WindSpeedMPH,WindSpeedGustMPH,Humidity,HourlyPrecipIn,Conditions,Clouds,dailyrainin,SoftwareType,DateUTC
2014-02-05 00:01:00,24.1,22.8,30.36,South,180,0.0,0.0,95,0.00,,,0.00,Kevin's Acu-Rapid 12,2014-02-05 05:01:00,
2014-02-05 00:02:00,24.1,22.8,30.36,South,180,0.0,0.0,95,0.00,,,0.00,Kevin's Acu-Rapid 12,2014-02-05 05:02:00,
2014-02-05 00:04:00,24.1,22.8,30.36,SSE,157,0.0,0.0,95,0.00,,,0.00,Kevin's Acu-Rapid 12,2014-02-05 05:04:00,
2014-02-05 00:09:00,24.4,23.1,30.35,SSE,157,0.0,0.0,95,0.00,,,0.00,Kevin's Acu-Rapid 12,2014-02-05 05:09:00,
2014-02-05 00:14:00,24.4,23.1,30.32,SSE,157,0.0,0.0,95,0.00,,,0.00,Kevin's Acu-Rapid 12,2014-02-05 05:14:00,
2014-02-05 00:19:00,24.4,23.1,30.30,SSE,157,0.0,1.1,95,0.00,,,0.00,Kevin's Acu-Rapid 12,2014-02-05 05:19:00,
2014-02-05 00:24:00,24.4,23.1,30.30,SSE,157,0.0,1.1,95,0.00,,,0.00,Kevin's Acu-Rapid 12,2014-02-05 05:24:00,
2014-02-05 00:29:00,24.4,23.1,30.30,SSE,157,0.0,0.0,95,0.00,,,0.00,Kevin's Acu-Rapid 12,2014-02-05 05:29:00,
2014-02-05 00:34:00,24.4,23.1,30.30,NNW,337,0.0,0.0,95,0.00,,,0.00,Kevin's Acu-Rapid 12,2014-02-05 05:34:00,
2014-02-05 00:40:00,24.4,23.1,30.30,NNW,337,0.0,1.7,95,0.00,,,0.00,Kevin's Acu-Rapid 12,2014-02-05 05:40:00,
2014-02-05 00:45:00,24.4,23.1,30.30,NNW,337,0.0,1.7,95,0.00,,,0.00,Kevin's Acu-Rapid 12,2014-02-05 05:45:00,
2014-02-05 00:50:00,24.4,23.1,30.29,NNW,337,0.0,0.0,95,0.00,,,0.00,Kevin's Acu-Rapid 12,2014-02-05 05:50:00,
2014-02-05 00:55:00,24.3,23.0,30.28,NNW,337,0.0,0.0,95,0.00,,,0.00,Kevin's Acu-Rapid 12,2014-02-05 05:55:00,
2014-02-05 01:00:00,24.1,22.8,30.28,NNW,337,0.0,0.0,95,0.00,,,0.00,Kevin's Acu-Rapid 12,2014-02-05 06:00:00,
2014-02-05 01:05:00,23.9,22.6,30.27,NNW,337,0.0,0.0,95,0.00,,,0.00,Kevin's Acu-Rapid 12,2014-02-05 06:05:00,
2014-02-05 01:10:00,24.1,22.8,30.28,West,270,0.0,0.0,95,0.00,,,0.00,Kevin's Acu-Rapid 12,2014-02-05 06:10:00,
2014-02-05 01:16:00,24.1,22.8,30.28,West,270,0.0,0.0,95,0.00,,,0.00,Kevin's Acu-Rapid 12,2014-02-05 06:16:00,
2014-02-05 01:21:00,24.1,22.8,30.27,WNW,292,0.0,0.0,95,0.00,,,0.00,Kevin's Acu-Rapid 12,2014-02-05 06:21:00,
2014-02-05 01:26:00,23.9,22.6,30.27,WNW,292,0.0,0.0,95,0.00,,,0.00,Kevin's Acu-Rapid 12,2014-02-05 06:26:00,
2014-02-05 01:31:00,23.9,22.6,30.29,WNW,292,0.0,0.0,95,0.00,,,0.00,Kevin's Acu-Rapid 12,2014-02-05 06:31:00,
2014-02-05 01:36:00,24.1,22.8,30.30,WNW,292,0.0,0.0,95,0.00,,,0.00,Kevin's Acu-Rapid 12,2014-02-05 06:36:00,
2014-02-05 01:41:00,24.1,22.8,30.30,WNW,292,0.0,0.0,95,0.00,,,0.00,Kevin's Acu-Rapid 12,2014-02-05 06:41:00,
2014-02-05 01:46:00,24.1,22.8,30.28,WNW,292,0.0,0.0,95,0.00,,,0.00,Kevin's Acu-Rapid 12,2014-02-05 06:46:00,
2014-02-05 01:51:00,24.3,23.0,30.28,WNW,292,0.0,0.0,95,0.00,,,0.00,Kevin's Acu-Rapid 12,2014-02-05 06:51:00,
2014-02-05 01:56:00,24.3,23.0,30.28,WNW,292,0.0,0.0,95,0.00,,,0.00,Kevin's Acu-Rapid 12,2014-02-05 06:56:00,
2014-02-05 02:01:00,24.3,23.0,30.27,ENE,67,0.0,0.0,95,0.00,,,0.00,Kevin's Acu-Rapid 12,2014-02-05 07:01:00,
2014-02-05 02:06:00,24.3,23.0,30.26,ENE,67,0.0,0.0,95,0.00,,,0.00,Kevin's Acu-Rapid 12,2014-02-05 07:06:00,
2014-02-05 02:12:00,24.4,23.1,30.26,NE,45,0.0,0.0,95,0.00,,,0.00,Kevin's Acu-Rapid 12,2014-02-05 07:12:00,
2014-02-05 02:17:00,24.6,23.3,30.23,NE,45,0.0,0.0,95,0.00,,,0.00,Kevin's Acu-Rapid 12,2014-02-05 07:17:00,
2014-02-05 02:22:00,24.6,23.3,30.25,West,270,0.0,0.0,95,0.00,,,0.00,Kevin's Acu-Rapid 12,2014-02-05 07:22:00,
2014-02-05 02:27:00,24.8,23.5,30.26,West,270,0.0,0.0,95,0.00,,,0.00,Kevin's Acu-Rapid 12,2014-02-05 07:27:00,
2014-02-05 02:32:00,25.0,23.7,30.26,West,270,0.0,0.0,95,0.00,,,0.00,Kevin's Acu-Rapid 12,2014-02-05 07:32:00,
2014-02-05 02:37:00,25.0,23.7,30.25,NE,45,0.0,0.0,95,0.00,,,0.00,Kevin's Acu-Rapid 12,2014-02-05 07:37:00,
2014-02-05 02:42:00,25.3,24.0,30.27,North,0,0.0,0.0,95,0.00,,,0.00,Kevin's Acu-Rapid 12,2014-02-05 07:42:00,
2014-02-05 02:47:00,25.3,24.0,30.28,North,0,0.0,0.0,95,0.00,,,0.00,Kevin's Acu-Rapid 12,2014-02-05 07:47:00,
2014-02-05 02:52:00,25.3,24.0,30.28,North,0,0.0,0.0,95,0.00,,,0.00,Kevin's Acu-Rapid 12,2014-02-05 07:52:00,
2014-02-05 02:57:00,25.3,24.0,30.28,North,0,0.0,0.0,95,0.00,,,0.00,Kevin's Acu-Rapid 12,2014-02-05 07:57:00,
2014-02-05 03:02:00,25.3,24.0,30.27,North,0,0.0,0.0,95,0.00,,,0.00,Kevin's Acu-Rapid 12,2014-02-05 08:02:00,
2014-02-05 03:08:00,25.3,24.0,30.27,North,0,0.0,0.0,95,0.00,,,0.00,Kevin's Acu-Rapid 12,2014-02-05 08:08:00,
2014-02-05 03:13:00,25.3,24.0,30.26,North,0,0.0,0.0,95,0.00,,,0.00,Kevin's Acu-Rapid 12,2014-02-05 08:13:00,
2014-02-05 03:18:00,25.3,24.0,30.25,North,0,0.0,0.0,95,0.00,,,0.00,Kevin's Acu-Rapid 12,2014-02-05 08:18:00,
2014-02-05 03:23:00,25.3,24.0,30.24,North,0,0.0,0.0,95,0.00,,,0.00,Kevin's Acu-Rapid 12,2014-02-05 08:23:00,
2014-02-05 03:28:00,25.5,24.2,30.25,North,0,0.0,0.0,95,0.00,,,0.00,Kevin's Acu-Rapid 12,2014-02-05 08:28:00,
2014-02-05 03:33:00,25.5,24.2,30.25,NE,45,0.0,0.0,95,0.00,,,0.00,Kevin's Acu-Rapid 12,2014-02-05 08:33:00,
2014-02-05 03:38:00,25.5,24.2,30.25,NE,45,0.0,0.0,95,0.00,,,0.00,Kevin's Acu-Rapid 12,2014-02-05 08:38:00,
2014-02-05 03:43:00,25.7,24.4,30.25,NE,45,0.0,0.0,95,0.00,,,0.00,Kevin's Acu-Rapid 12,2014-02-05 08:43:00,
2014-02-05 03:48:00,25.7,24.4,30.25,NE,45,0.0,0.0,95,0.00,,,0.00,Kevin's Acu-Rapid 12,2014-02-05 08:48:00,
2014-02-05 03:53:00,25.7,24.4,30.25,NE,45,0.0,0.0,95,0.00,,,0.00,Kevin's Acu-Rapid 12,2014-02-05 08:53:00,
2014-02-05 03:59:00,25.9,24.6,30.23,NE,45,0.0,0.0,95,0.00,,,0.00,Kevin's Acu-Rapid 12,2014-02-05 08:59:00,
2014-02-05 04:04:00,25.9,24.6,30.23,West,270,0.0,0.0,95,0.00,,,0.00,Kevin's Acu-Rapid 12,2014-02-05 09:04:00,
2014-02-05 04:09:00,25.9,24.6,30.23,NNW,337,0.0,0.0,95,0.00,,,0.00,Kevin's Acu-Rapid 12,2014-02-05 09:09:00,
2014-02-05 04:14:00,26.1,24.8,30.24,NNW,337,0.0,0.0,95,0.00,,,0.00,Kevin's Acu-Rapid 12,2014-02-05 09:14:00,
2014-02-05 04:19:00,26.1,24.8,30.24,NNW,337,0.0,0.0,95,0.00,,,0.00,Kevin's Acu-Rapid 12,2014-02-05 09:19:00,
2014-02-05 04:24:00,26.1,24.8,30.23,NNW,337,0.0,0.0,95,0.00,,,0.00,Kevin's Acu-Rapid 12,2014-02-05 09:24:00,
2014-02-05 04:29:00,26.1,24.8,30.23,NNW,337,0.0,0.0,95,0.00,,,0.00,Kevin's Acu-Rapid 12,2014-02-05 09:29:00,
2014-02-05 04:35:00,26.1,24.8,30.22,NNW,337,0.0,0.0,95,0.00,,,0.00,Kevin's Acu-Rapid 12,2014-02-05 09:35:00,
2014-02-05 04:40:00,26.1,24.8,30.22,NNW,337,0.0,0.0,95,0.00,,,0.00,Kevin's Acu-Rapid 12,2014-02-05 09:40:00,
2014-02-05 04:45:00,26.1,24.8,30.21,NNW,337,0.0,0.0,95,0.00,,,0.00,Kevin's Acu-Rapid 12,2014-02-05 09:45:00,
2014-02-05 04:50:00,26.1,24.8,30.21,NNW,337,0.0,0.0,95,0.00,,,0.00,Kevin's Acu-Rapid 12,2014-02-05 09:50:00,
2014-02-05 04:55:00,26.1,24.8,30.20,NNW,337,0.0,0.0,95,0.00,,,0.00,Kevin's Acu-Rapid 12,2014-02-05 09:55:00,
2014-02-05 05:00:00,26.1,24.8,30.19,NNW,337,0.0,0.0,95,0.00,,,0.00,Kevin's Acu-Rapid 12,2014-02-05 10:00:00,
2014-02-05 05:05:00,26.1,24.8,30.19,NNW,337,0.0,0.0,95,0.00,,,0.00,Kevin's Acu-Rapid 12,2014-02-05 10:05:00,
2014-02-05 05:11:00,26.1,24.8,30.18,NNW,337,0.0,0.0,95,0.00,,,0.00,Kevin's Acu-Rapid 12,2014-02-05 10:11:00,
2014-02-05 05:16:00,26.1,24.8,30.18,NNW,337,0.0,0.0,95,0.00,,,0.00,Kevin's Acu-Rapid 12,2014-02-05 10:16:00,
2014-02-05 05:21:00,26.2,24.9,30.18,NNW,337,0.0,0.0,95,0.00,,,0.00,Kevin's Acu-Rapid 12,2014-02-05 10:21:00,
2014-02-05 05:26:00,26.2,24.9,30.18,NE,45,0.0,0.0,95,0.00,,,0.00,Kevin's Acu-Rapid 12,2014-02-05 10:26:00,
2014-02-05 05:31:00,26.2,24.9,30.18,NE,45,0.0,0.0,95,0.00,,,0.00,Kevin's Acu-Rapid 12,2014-02-05 10:31:00,
2014-02-05 05:37:00,26.2,24.9,30.17,East,90,0.0,0.0,95,0.00,,,0.00,Kevin's Acu-Rapid 12,2014-02-05 10:37:00,
2014-02-05 05:42:00,26.2,24.9,30.17,North,0,0.0,0.0,95,0.00,,,0.00,Kevin's Acu-Rapid 12,2014-02-05 10:42:00,
2014-02-05 05:47:00,26.2,24.9,30.16,North,0,0.0,0.0,95,0.00,,,0.00,Kevin's Acu-Rapid 12,2014-02-05 10:47:00,
2014-02-05 05:52:00,26.2,24.9,30.16,North,0,0.0,0.0,95,0.00,,,0.00,Kevin's Acu-Rapid 12,2014-02-05 10:52:00,
2014-02-05 05:57:00,26.2,24.9,30.15,North,0,0.0,0.0,95,0.00,,,0.00,Kevin's Acu-Rapid 12,2014-02-05 10:57:00,
2014-02-05 06:03:00,26.4,25.1,30.15,NNE,22,0.0,0.0,95,0.00,,,0.00,Kevin's Acu-Rapid 12,2014-02-05 11:03:00,
2014-02-05 06:08:00,26.4,25.1,30.15,NNE,22,0.0,0.0,95,0.00,,,0.00,Kevin's Acu-Rapid 12,2014-02-05 11:08:00,
2014-02-05 06:13:00,26.4,25.1,30.15,ENE,67,0.0,0.0,95,0.00,,,0.00,Kevin's Acu-Rapid 12,2014-02-05 11:13:00,
2014-02-05 06:19:00,26.6,25.3,30.15,SE,135,1.7,1.7,95,0.00,,,0.00,Kevin's Acu-Rapid 12,2014-02-05 11:19:00,
2014-02-05 06:24:00,26.6,25.3,30.14,West,270,0.0,1.7,95,0.00,,,0.00,Kevin's Acu-Rapid 12,2014-02-05 11:24:00,
2014-02-05 06:29:00,26.6,25.3,30.13,East,90,0.0,1.7,95,0.00,,,0.00,Kevin's Acu-Rapid 12,2014-02-05 11:29:00,
2014-02-05 06:35:00,26.6,25.3,30.13,North,0,0.0,1.7,95,0.00,,,0.00,Kevin's Acu-Rapid 12,2014-02-05 11:35:00,
2014-02-05 06:40:00,27.0,25.7,30.11,NNW,337,2.2,2.7,95,0.00,,,0.00,Kevin's Acu-Rapid 12,2014-02-05 11:40:00,
2014-02-05 06:45:00,27.1,25.8,30.11,NE,45,0.0,3.2,95,0.00,,,0.00,Kevin's Acu-Rapid 12,2014-02-05 11:45:00,
2014-02-05 06:50:00,27.3,26.0,30.10,NNE,22,3.2,3.2,95,0.00,,,0.00,Kevin's Acu-Rapid 12,2014-02-05 11:50:00,
2014-02-05 06:55:00,27.7,26.4,30.07,WNW,292,1.1,3.2,95,0.00,,,0.00,Kevin's Acu-Rapid 12,2014-02-05 11:55:00,
2014-02-05 07:01:00,27.7,26.4,30.08,SSE,157,0.0,4.7,95,0.00,,,0.00,Kevin's Acu-Rapid 12,2014-02-05 12:01:00,
2014-02-05 07:06:00,27.7,26.4,30.08,ESE,112,1.7,4.7,95,0.00,,,0.00,Kevin's Acu-Rapid 12,2014-02-05 12:06:00,
2014-02-05 07:11:00,27.9,26.6,30.08,NE,45,0.0,2.7,95,0.00,,,0.00,Kevin's Acu-Rapid 12,2014-02-05 12:11:00,
2014-02-05 07:16:00,27.9,26.6,30.09,NNE,22,0.0,3.7,95,0.00,,,0.00,Kevin's Acu-Rapid 12,2014-02-05 12:16:00,
2014-02-05 07:21:00,27.9,26.6,30.08,NNE,22,0.0,3.7,95,0.00,,,0.00,Kevin's Acu-Rapid 12,2014-02-05 12:21:00,
2014-02-05 07:26:00,28.0,26.7,30.07,East,90,0.0,1.7,95,0.00,,,0.00,Kevin's Acu-Rapid 12,2014-02-05 12:26:00,
2014-02-05 07:31:00,28.0,26.7,30.06,WNW,292,0.0,1.7,95,0.00,,,0.00,Kevin's Acu-Rapid 12,2014-02-05 12:31:00,
2014-02-05 07:36:00,28.0,26.7,30.06,NW,315,0.0,0.0,95,0.00,,,0.00,Kevin's Acu-Rapid 12,2014-02-05 12:36:00,
2014-02-05 07:41:00,28.0,26.7,30.08,WNW,292,0.0,0.0,95,0.00,,,0.00,Kevin's Acu-Rapid 12,2014-02-05 12:41:00,
2014-02-05 07:46:00,28.2,26.9,30.07,ESE,112,0.0,0.0,95,0.00,,,0.00,Kevin's Acu-Rapid 12,2014-02-05 12:46:00,
2014-02-05 07:51:00,28.2,26.9,30.08,West,270,0.0,0.0,95,0.00,,,0.00,Kevin's Acu-Rapid 12,2014-02-05 12:51:00,
2014-02-05 07:56:00,28.4,27.1,30.07,NNW,337,2.2,2.2,95,0.00,,,0.00,Kevin's Acu-Rapid 12,2014-02-05 12:56:00,
2014-02-05 08:01:00,28.4,27.1,30.08,NNE,22,1.7,2.2,95,0.00,,,0.00,Kevin's Acu-Rapid 12,2014-02-05 13:01:00,
2014-02-05 08:06:00,28.6,27.3,30.07,SSE,157,1.7,2.2,95,0.00,,,0.00,Kevin's Acu-Rapid 12,2014-02-05 13:06:00,
2014-02-05 08:11:00,28.6,27.3,30.08,SSW,202,0.0,1.7,95,0.00,,,0.00,Kevin's Acu-Rapid 12,2014-02-05 13:11:00,
2014-02-05 08:16:00,28.8,27.5,30.08,NNE,22,1.7,2.7,95,0.00,,,0.00,Kevin's Acu-Rapid 12,2014-02-05 13:16:00,
2014-02-05 08:21:00,28.8,27.5,30.08,NNE,22,1.7,2.7,95,0.00,,,0.00,Kevin's Acu-Rapid 12,2014-02-05 13:21:00,
2014-02-05 08:26:00,28.9,27.6,30.07,ENE,67,0.0,1.7,95,0.00,,,0.00,Kevin's Acu-Rapid 12,2014-02-05 13:26:00,
2014-02-05 08:31:00,28.9,27.6,30.06,NW,315,0.0,1.1,95,0.00,,,0.00,Kevin's Acu-Rapid 12,2014-02-05 13:31:00,
2014-02-05 08:36:00,28.9,27.3,30.06,WNW,292,1.7,2.7,94,0.00,,,0.00,Kevin's Acu-Rapid 12,2014-02-05 13:36:00,
2014-02-05 08:41:00,29.1,27.5,30.04,NE,45,2.2,2.7,94,0.00,,,0.00,Kevin's Acu-Rapid 12,2014-02-05 13:41:00,
2014-02-05 08:46:00,29.3,27.7,30.04,NE,45,0.0,2.7,94,0.00,,,0.00,Kevin's Acu-Rapid 12,2014-02-05 13:46:00,
2014-02-05 08:51:00,29.5,27.9,30.04,WNW,292,0.0,2.2,94,0.00,,,0.00,Kevin's Acu-Rapid 12,2014-02-05 13:51:00,
2014-02-05 08:56:00,29.5,27.9,30.03,NE,45,0.0,2.2,94,0.00,,,0.00,Kevin's Acu-Rapid 12,2014-02-05 13:56:00,
2014-02-05 09:01:00,29.5,27.9,30.03,NE,45,0.0,0.0,94,0.00,,,0.00,Kevin's Acu-Rapid 12,2014-02-05 14:01:00,
2014-02-05 09:06:00,29.7,28.1,30.02,SE,135,1.1,3.2,94,0.00,,,0.00,Kevin's Acu-Rapid 12,2014-02-05 14:06:00,
2014-02-05 09:11:00,29.8,28.2,30.02,NE,45,2.2,4.2,94,0.00,,,0.00,Kevin's Acu-Rapid 12,2014-02-05 14:11:00,
2014-02-05 09:16:00,30.2,28.6,30.01,NE,45,1.1,4.2,94,0.00,,,0.00,Kevin's Acu-Rapid 12,2014-02-05 14:16:00,
2014-02-05 09:21:00,30.4,28.8,30.00,ENE,67,3.7,4.2,94,0.00,,,0.00,Kevin's Acu-Rapid 12,2014-02-05 14:21:00,
2014-02-05 09:26:00,30.6,29.0,29.97,ESE,112,1.7,5.3,94,0.00,,,0.00,Kevin's Acu-Rapid 12,2014-02-05 14:26:00,
2014-02-05 09:31:00,30.9,29.3,29.97,NE,45,4.7,8.3,94,0.01,,,0.01,Kevin's Acu-Rapid 12,2014-02-05 14:31:00,
2014-02-05 09:36:00,31.1,29.5,29.96,NNW,337,1.7,8.3,94,0.01,,,0.01,Kevin's Acu-Rapid 12,2014-02-05 14:36:00,
2014-02-05 09:41:00,31.3,29.7,29.96,SSE,157,1.7,6.8,94,0.01,,,0.01,Kevin's Acu-Rapid 12,2014-02-05 14:41:00,
2014-02-05 09:46:00,31.3,29.7,29.95,South,180,4.2,6.3,94,0.01,,,0.01,Kevin's Acu-Rapid 12,2014-02-05 14:46:00,
2014-02-05 09:51:00,31.5,29.9,29.96,SSE,157,2.7,6.3,94,0.01,,,0.01,Kevin's Acu-Rapid 12,2014-02-05 14:51:00,
2014-02-05 09:56:00,31.5,29.9,29.96,NNE,22,2.2,5.8,94,0.01,,,0.01,Kevin's Acu-Rapid 12,2014-02-05 14:56:00,
2014-02-05 10:01:00,31.8,30.2,29.96,WSW,247,1.7,3.7,94,0.01,,,0.01,Kevin's Acu-Rapid 12,2014-02-05 15:01:00,
2014-02-05 10:06:00,31.8,30.2,29.96,NE,45,3.7,4.7,94,0.01,,,0.01,Kevin's Acu-Rapid 12,2014-02-05 15:06:00,
2014-02-05 10:11:00,32.0,30.4,29.95,NNW,337,2.2,4.7,94,0.01,,,0.01,Kevin's Acu-Rapid 12,2014-02-05 15:11:00,
2014-02-05 10:16:00,32.0,30.4,29.93,East,90,3.2,5.8,94,0.01,,,0.01,Kevin's Acu-Rapid 12,2014-02-05 15:16:00,
2014-02-05 10:21:00,32.2,30.6,29.93,East,90,2.2,5.8,94,0.01,,,0.01,Kevin's Acu-Rapid 12,2014-02-05 15:21:00,
2014-02-05 10:26:00,32.2,30.6,29.93,SE,135,4.2,5.8,94,0.01,,,0.01,Kevin's Acu-Rapid 12,2014-02-05 15:26:00,
2014-02-05 10:31:00,32.2,30.6,29.92,SSE,157,4.2,5.8,94,0.00,,,0.01,Kevin's Acu-Rapid 12,2014-02-05 15:31:00,
2014-02-05 10:36:00,32.4,30.8,29.92,ENE,67,0.0,5.8,94,0.00,,,0.01,Kevin's Acu-Rapid 12,2014-02-05 15:36:00,
2014-02-05 10:42:00,32.5,30.7,29.90,SE,135,2.2,5.8,93,0.00,,,0.01,Kevin's Acu-Rapid 12,2014-02-05 15:42:00,
2014-02-05 10:47:00,32.5,30.7,29.90,NNE,22,1.7,7.8,93,0.00,,,0.01,Kevin's Acu-Rapid 12,2014-02-05 15:47:00,
2014-02-05 10:52:00,32.5,30.7,29.89,ESE,112,4.2,8.3,93,0.00,,,0.01,Kevin's Acu-Rapid 12,2014-02-05 15:52:00,
2014-02-05 10:57:00,32.7,30.6,29.88,NE,45,3.7,8.3,92,0.00,,,0.01,Kevin's Acu-Rapid 12,2014-02-05 15:57:00,
2014-02-05 11:02:00,33.1,31.0,29.87,NNE,22,5.8,5.8,92,0.00,,,0.01,Kevin's Acu-Rapid 12,2014-02-05 16:02:00,
2014-02-05 11:07:00,33.1,30.7,29.86,NE,45,6.8,7.3,91,0.00,,,0.01,Kevin's Acu-Rapid 12,2014-02-05 16:07:00,
2014-02-05 11:12:00,33.1,30.7,29.84,NE,45,6.3,7.3,91,0.00,,,0.01,Kevin's Acu-Rapid 12,2014-02-05 16:12:00,
2014-02-05 11:18:00,33.1,30.7,29.83,East,90,4.7,10.9,91,0.00,,,0.01,Kevin's Acu-Rapid 12,2014-02-05 16:18:00,
2014-02-05 11:23:00,33.1,30.7,29.82,NE,45,2.2,10.9,91,0.00,,,0.01,Kevin's Acu-Rapid 12,2014-02-05 16:23:00,
2014-02-05 11:28:00,33.1,30.7,29.82,ENE,67,4.7,9.9,91,0.00,,,0.01,Kevin's Acu-Rapid 12,2014-02-05 16:28:00,
2014-02-05 11:33:00,33.3,30.6,29.80,East,90,3.2,9.9,90,0.00,,,0.01,Kevin's Acu-Rapid 12,2014-02-05 16:33:00,
2014-02-05 11:38:00,33.6,30.9,29.81,NE,45,4.2,6.3,90,0.00,,,0.01,Kevin's Acu-Rapid 12,2014-02-05 16:38:00,
2014-02-05 11:43:00,33.4,30.7,29.81,NE,45,4.7,8.9,90,0.00,,,0.01,Kevin's Acu-Rapid 12,2014-02-05 16:43:00,
2014-02-05 11:48:00,33.6,30.7,29.79,NNE,22,5.8,8.9,89,0.00,,,0.01,Kevin's Acu-Rapid 12,2014-02-05 16:48:00,
2014-02-05 11:53:00,34.0,31.1,29.79,NE,45,3.2,7.8,89,0.01,,,0.02,Kevin's Acu-Rapid 12,2014-02-05 16:53:00,
2014-02-05 11:59:00,33.8,30.9,29.78,ENE,67,3.2,10.4,89,0.01,,,0.02,Kevin's Acu-Rapid 12,2014-02-05 16:59:00,
2014-02-05 12:04:00,34.2,31.0,29.77,ESE,112,7.3,10.4,88,0.01,,,0.02,Kevin's Acu-Rapid 12,2014-02-05 17:04:00,
2014-02-05 12:09:00,34.2,31.0,29.76,SE,135,4.2,9.4,88,0.01,,,0.02,Kevin's Acu-Rapid 12,2014-02-05 17:09:00,
2014-02-05 12:14:00,33.6,30.4,29.75,East,90,3.2,8.3,88,0.01,,,0.02,Kevin's Acu-Rapid 12,2014-02-05 17:14:00,
2014-02-05 12:19:00,34.0,30.8,29.73,ENE,67,3.7,10.9,88,0.01,,,0.02,Kevin's Acu-Rapid 12,2014-02-05 17:19:00,
2014-02-05 12:24:00,33.8,30.6,29.73,NNE,22,3.7,10.9,88,0.01,,,0.02,Kevin's Acu-Rapid 12,2014-02-05 17:24:00,
2014-02-05 12:29:00,33.6,30.4,29.73,ESE,112,5.8,10.9,88,0.01,,,0.02,Kevin's Acu-Rapid 12,2014-02-05 17:29:00,
2014-02-05 12:34:00,33.6,30.7,29.72,WNW,292,3.2,7.3,89,0.01,,,0.02,Kevin's Acu-Rapid 12,2014-02-05 17:34:00,
2014-02-05 12:40:00,33.4,30.5,29.72,SSW,202,1.7,7.3,89,0.01,,,0.02,Kevin's Acu-Rapid 12,2014-02-05 17:40:00,
2014-02-05 12:45:00,33.4,30.5,29.71,North,0,7.3,9.9,89,0.01,,,0.02,Kevin's Acu-Rapid 12,2014-02-05 17:45:00,
2014-02-05 12:50:00,33.3,30.4,29.68,NNE,22,7.8,10.4,89,0.00,,,0.02,Kevin's Acu-Rapid 12,2014-02-05 17:50:00,
2014-02-05 12:55:00,33.3,30.4,29.67,NE,45,3.7,9.9,89,0.00,,,0.02,Kevin's Acu-Rapid 12,2014-02-05 17:55:00,
2014-02-05 13:00:00,33.4,30.5,29.67,East,90,4.2,9.9,89,0.01,,,0.03,Kevin's Acu-Rapid 12,2014-02-05 18:00:00,
2014-02-05 13:05:00,33.3,30.4,29.66,NE,45,2.2,9.9,89,0.01,,,0.03,Kevin's Acu-Rapid 12,2014-02-05 18:05:00,
2014-02-05 13:10:00,33.3,30.4,29.66,East,90,4.7,9.4,89,0.01,,,0.03,Kevin's Acu-Rapid 12,2014-02-05 18:10:00,
2014-02-05 13:15:00,32.9,30.2,29.65,NE,45,8.3,9.4,90,0.01,,,0.03,Kevin's Acu-Rapid 12,2014-02-05 18:15:00,
2014-02-05 13:21:00,32.9,30.2,29.65,ENE,67,2.2,8.9,90,0.01,,,0.03,Kevin's Acu-Rapid 12,2014-02-05 18:21:00,
2014-02-05 13:26:00,32.9,30.2,29.67,SW,225,2.2,7.8,90,0.01,,,0.03,Kevin's Acu-Rapid 12,2014-02-05 18:26:00,
2014-02-05 13:31:00,32.9,30.2,29.67,East,90,2.7,8.9,90,0.01,,,0.03,Kevin's Acu-Rapid 12,2014-02-05 18:31:00,
2014-02-05 13:36:00,33.3,30.6,29.66,East,90,6.3,8.9,90,0.02,,,0.04,Kevin's Acu-Rapid 12,2014-02-05 18:36:00,
2014-02-05 13:41:00,33.3,30.6,29.64,West,270,4.7,6.3,90,0.03,,,0.05,Kevin's Acu-Rapid 12,2014-02-05 18:41:00,
2014-02-05 13:46:00,33.4,30.7,29.64,NNE,22,6.8,6.8,90,0.03,,,0.05,Kevin's Acu-Rapid 12,2014-02-05 18:46:00,
2014-02-05 13:51:00,33.3,30.6,29.66,North,0,2.7,9.4,90,0.03,,,0.05,Kevin's Acu-Rapid 12,2014-02-05 18:51:00,
2014-02-05 13:56:00,33.3,30.6,29.65,West,270,1.7,9.4,90,0.03,,,0.05,Kevin's Acu-Rapid 12,2014-02-05 18:56:00,
2014-02-05 14:01:00,33.4,30.7,29.64,NNW,337,5.3,5.3,90,0.04,,,0.06,Kevin's Acu-Rapid 12,2014-02-05 19:01:00,
2014-02-05 14:06:00,33.4,30.7,29.64,ENE,67,2.7,8.3,90,0.04,,,0.07,Kevin's Acu-Rapid 12,2014-02-05 19:06:00,
2014-02-05 14:11:00,33.4,30.7,29.64,NE,45,3.7,8.3,90,0.04,,,0.07,Kevin's Acu-Rapid 12,2014-02-05 19:11:00,
2014-02-05 14:16:00,33.4,30.7,29.62,NE,45,2.2,8.3,90,0.05,,,0.08,Kevin's Acu-Rapid 12,2014-02-05 19:16:00,
2014-02-05 14:21:00,33.6,30.9,29.62,NE,45,5.8,5.8,90,0.05,,,0.08,Kevin's Acu-Rapid 12,2014-02-05 19:21:00,
2014-02-05 14:26:00,33.6,30.9,29.62,NE,45,5.8,5.8,90,0.05,,,0.08,Kevin's Acu-Rapid 12,2014-02-05 19:26:00,
2014-02-05 14:31:00,33.6,30.9,29.61,NE,45,5.8,5.8,90,0.05,,,0.08,Kevin's Acu-Rapid 12,2014-02-05 19:31:00,
2014-02-05 14:36:00,33.6,30.9,29.61,NE,45,5.8,5.8,90,0.05,,,0.08,Kevin's Acu-Rapid 12,2014-02-05 19:36:00,
2014-02-05 14:41:00,33.6,30.9,29.61,NE,45,5.8,5.8,90,0.05,,,0.08,Kevin's Acu-Rapid 12,2014-02-05 19:41:00,
2014-02-05 14:46:00,33.6,30.9,29.61,NE,45,5.8,5.8,90,0.05,,,0.08,Kevin's Acu-Rapid 12,2014-02-05 19:46:00,
2014-02-05 14:51:00,33.6,30.9,29.61,NE,45,5.8,5.8,90,0.05,,,0.08,Kevin's Acu-Rapid 12,2014-02-05 19:51:00,
2014-02-05 14:56:00,33.6,30.9,29.61,NE,45,5.8,5.8,90,0.05,,,0.08,Kevin's Acu-Rapid 12,2014-02-05 19:56:00,
2014-02-05 15:01:00,33.6,30.9,29.60,NE,45,5.8,5.8,90,0.05,,,0.08,Kevin's Acu-Rapid 12,2014-02-05 20:01:00,
2014-02-05 15:06:00,33.6,30.9,29.59,NE,45,5.8,5.8,90,0.05,,,0.08,Kevin's Acu-Rapid 12,2014-02-05 20:06:00,
2014-02-05 15:11:00,33.6,30.9,29.59,North,0,3.7,3.7,90,0.02,,,0.09,Kevin's Acu-Rapid 12,2014-02-05 20:11:00,
2014-02-05 15:16:00,33.6,30.9,29.59,North,0,3.7,3.7,90,0.02,,,0.09,Kevin's Acu-Rapid 12,2014-02-05 20:16:00,
2014-02-05 15:21:00,33.6,31.2,29.59,North,0,3.7,3.7,91,0.02,,,0.09,Kevin's Acu-Rapid 12,2014-02-05 20:21:00,
2014-02-05 15:26:00,33.6,31.2,29.60,North,0,3.7,3.7,91,0.02,,,0.09,Kevin's Acu-Rapid 12,2014-02-05 20:26:00,
2014-02-05 15:31:00,33.6,31.2,29.60,NNE,22,2.2,4.2,91,0.01,,,0.09,Kevin's Acu-Rapid 12,2014-02-05 20:31:00,
2014-02-05 15:36:00,33.6,31.2,29.61,NNE,22,2.2,4.2,91,0.01,,,0.09,Kevin's Acu-Rapid 12,2014-02-05 20:36:00,
2014-02-05 15:41:00,33.6,31.2,29.61,NE,45,6.3,6.3,91,0.01,,,0.09,Kevin's Acu-Rapid 12,2014-02-05 20:41:00,
2014-02-05 15:46:00,33.6,31.2,29.62,NE,45,6.3,6.3,91,0.01,,,0.09,Kevin's Acu-Rapid 12,2014-02-05 20:46:00,
2014-02-05 15:51:00,33.6,31.2,29.61,NE,45,6.3,6.3,91,0.01,,,0.09,Kevin's Acu-Rapid 12,2014-02-05 20:51:00,
2014-02-05 15:56:00,33.6,31.2,29.61,NE,45,6.3,6.3,91,0.01,,,0.09,Kevin's Acu-Rapid 12,2014-02-05 20:56:00,
2014-02-05 16:01:00,33.6,31.2,29.62,NE,45,6.3,6.3,91,0.01,,,0.09,Kevin's Acu-Rapid 12,2014-02-05 21:01:00,
2014-02-05 16:06:00,33.6,31.2,29.62,NE,45,6.3,6.3,91,0.01,,,0.09,Kevin's Acu-Rapid 12,2014-02-05 21:06:00,
2014-02-05 16:11:00,33.6,31.2,29.62,NE,45,6.3,6.3,91,0.01,,,0.09,Kevin's Acu-Rapid 12,2014-02-05 21:11:00,
2014-02-05 16:16:00,33.6,31.2,29.62,NE,45,6.3,6.3,91,0.01,,,0.09,Kevin's Acu-Rapid 12,2014-02-05 21:16:00,
2014-02-05 16:21:00,33.4,31.5,29.63,NNW,337,3.7,3.7,93,0.02,,,0.11,Kevin's Acu-Rapid 12,2014-02-05 21:21:00,
2014-02-05 16:26:00,33.4,31.5,29.63,NNW,337,2.2,3.7,93,0.02,,,0.11,Kevin's Acu-Rapid 12,2014-02-05 21:26:00,
2014-02-05 16:31:00,33.4,31.5,29.63,NNW,337,2.2,3.7,93,0.02,,,0.11,Kevin's Acu-Rapid 12,2014-02-05 21:31:00,
2014-02-05 16:36:00,33.4,31.5,29.62,NNW,337,2.2,3.7,93,0.02,,,0.11,Kevin's Acu-Rapid 12,2014-02-05 21:36:00,
2014-02-05 16:41:00,33.4,31.5,29.62,NNW,337,2.2,3.7,93,0.02,,,0.11,Kevin's Acu-Rapid 12,2014-02-05 21:41:00,
2014-02-05 16:46:00,33.4,31.5,29.62,NNW,337,2.2,3.7,93,0.02,,,0.11,Kevin's Acu-Rapid 12,2014-02-05 21:46:00,
2014-02-05 16:51:00,33.4,31.5,29.62,NNW,337,2.2,3.7,93,0.02,,,0.11,Kevin's Acu-Rapid 12,2014-02-05 21:51:00,
2014-02-05 16:56:00,32.7,30.9,29.61,NNW,337,1.7,1.7,93,0.02,,,0.11,Kevin's Acu-Rapid 12,2014-02-05 21:56:00,
2014-02-05 17:01:00,32.7,30.9,29.61,NNW,337,1.7,1.7,93,0.02,,,0.11,Kevin's Acu-Rapid 12,2014-02-05 22:01:00,
2014-02-05 17:06:00,32.7,30.9,29.60,NNW,337,1.7,1.7,93,0.02,,,0.11,Kevin's Acu-Rapid 12,2014-02-05 22:06:00,
2014-02-05 17:11:00,32.7,30.9,29.60,NNW,337,1.7,1.7,93,0.02,,,0.11,Kevin's Acu-Rapid 12,2014-02-05 22:11:00,
2014-02-05 17:16:00,32.7,30.9,29.60,NNW,337,1.7,1.7,93,0.02,,,0.11,Kevin's Acu-Rapid 12,2014-02-05 22:16:00,
2014-02-05 17:21:00,32.7,30.9,29.60,NNW,337,1.7,1.7,93,0.02,,,0.11,Kevin's Acu-Rapid 12,2014-02-05 22:21:00,
2014-02-05 17:26:00,32.7,30.9,29.60,NNW,337,1.7,1.7,93,0.02,,,0.11,Kevin's Acu-Rapid 12,2014-02-05 22:26:00,
2014-02-05 17:31:00,32.2,30.6,29.61,NNE,22,1.7,2.2,94,0.02,,,0.13,Kevin's Acu-Rapid 12,2014-02-05 22:31:00,
2014-02-05 17:36:00,32.2,30.6,29.61,West,270,1.7,2.2,94,0.02,,,0.13,Kevin's Acu-Rapid 12,2014-02-05 22:36:00,
2014-02-05 17:41:00,32.0,30.4,29.62,NNW,337,2.2,2.7,94,0.02,,,0.13,Kevin's Acu-Rapid 12,2014-02-05 22:41:00,
2014-02-05 17:46:00,32.0,30.4,29.62,ESE,112,0.0,2.7,94,0.02,,,0.13,Kevin's Acu-Rapid 12,2014-02-05 22:46:00,
2014-02-05 17:51:00,32.0,30.4,29.63,NNW,337,1.1,2.7,94,0.02,,,0.13,Kevin's Acu-Rapid 12,2014-02-05 22:51:00,
2014-02-05 17:57:00,32.0,30.4,29.63,NNW,337,1.7,2.7,94,0.02,,,0.13,Kevin's Acu-Rapid 12,2014-02-05 22:57:00,
2014-02-05 18:02:00,32.0,30.4,29.63,West,270,2.7,3.2,94,0.02,,,0.13,Kevin's Acu-Rapid 12,2014-02-05 23:02:00,
2014-02-05 18:07:00,32.0,30.4,29.62,NNW,337,1.1,3.7,94,0.02,,,0.13,Kevin's Acu-Rapid 12,2014-02-05 23:07:00,
2014-02-05 18:12:00,32.0,30.4,29.62,WNW,292,2.2,4.2,94,0.02,,,0.13,Kevin's Acu-Rapid 12,2014-02-05 23:12:00,
2014-02-05 18:17:00,32.0,30.4,29.62,WSW,247,3.2,4.2,94,0.02,,,0.13,Kevin's Acu-Rapid 12,2014-02-05 23:17:00,
2014-02-05 18:22:00,32.0,30.4,29.62,West,270,1.7,4.2,94,0.02,,,0.13,Kevin's Acu-Rapid 12,2014-02-05 23:22:00,
2014-02-05 18:27:00,32.0,30.4,29.63,West,270,2.7,4.2,94,0.02,,,0.13,Kevin's Acu-Rapid 12,2014-02-05 23:27:00,
2014-02-05 18:32:00,32.0,30.4,29.64,NNE,22,1.7,4.7,94,0.00,,,0.13,Kevin's Acu-Rapid 12,2014-02-05 23:32:00,
2014-02-05 18:38:00,32.0,30.4,29.65,West,270,2.2,4.7,94,0.00,,,0.13,Kevin's Acu-Rapid 12,2014-02-05 23:38:00,
2014-02-05 18:43:00,32.0,30.4,29.65,NNW,337,4.2,8.3,94,0.00,,,0.13,Kevin's Acu-Rapid 12,2014-02-05 23:43:00,
2014-02-05 18:48:00,32.0,30.4,29.66,NW,315,2.2,8.3,94,0.00,,,0.13,Kevin's Acu-Rapid 12,2014-02-05 23:48:00,
2014-02-05 18:53:00,32.0,30.4,29.66,NNW,337,2.7,5.8,94,0.00,,,0.13,Kevin's Acu-Rapid 12,2014-02-05 23:53:00,
2014-02-05 18:58:00,32.0,30.4,29.66,NW,315,2.7,5.8,94,0.00,,,0.13,Kevin's Acu-Rapid 12,2014-02-05 23:58:00,
2014-02-05 19:03:00,32.0,30.4,29.67,East,90,3.2,5.3,94,0.00,,,0.13,Kevin's Acu-Rapid 12,2014-02-06 00:03:00,
2014-02-05 19:08:00,32.0,30.4,29.67,NE,45,2.2,5.3,94,0.00,,,0.13,Kevin's Acu-Rapid 12,2014-02-06 00:08:00,
2014-02-05 19:13:00,32.0,30.4,29.67,NNE,22,1.7,4.7,94,0.00,,,0.13,Kevin's Acu-Rapid 12,2014-02-06 00:13:00,
2014-02-05 19:18:00,32.0,30.4,29.67,NNE,22,2.7,6.8,94,0.00,,,0.13,Kevin's Acu-Rapid 12,2014-02-06 00:18:00,
2014-02-05 19:23:00,32.0,30.4,29.67,NE,45,3.7,6.8,94,0.00,,,0.13,Kevin's Acu-Rapid 12,2014-02-06 00:23:00,
2014-02-05 19:28:00,31.8,30.2,29.67,NW,315,3.7,6.3,94,0.00,,,0.13,Kevin's Acu-Rapid 12,2014-02-06 00:28:00,
2014-02-05 19:34:00,31.8,30.2,29.68,ENE,67,7.8,7.8,94,0.00,,,0.13,Kevin's Acu-Rapid 12,2014-02-06 00:34:00,
2014-02-05 19:39:00,31.6,30.0,29.68,WNW,292,2.2,7.8,94,0.00,,,0.13,Kevin's Acu-Rapid 12,2014-02-06 00:39:00,
2014-02-05 19:44:00,31.3,29.7,29.68,NNW,337,3.2,4.2,94,0.00,,,0.13,Kevin's Acu-Rapid 12,2014-02-06 00:44:00,
2014-02-05 19:49:00,31.1,29.5,29.68,NE,45,3.2,5.3,94,0.00,,,0.13,Kevin's Acu-Rapid 12,2014-02-06 00:49:00,
2014-02-05 19:54:00,30.7,28.9,29.68,WNW,292,2.7,6.3,93,0.00,,,0.13,Kevin's Acu-Rapid 12,2014-02-06 00:54:00,
2014-02-05 19:59:00,30.6,28.8,29.68,North,0,2.2,6.3,93,0.00,,,0.13,Kevin's Acu-Rapid 12,2014-02-06 00:59:00,
2014-02-05 20:04:00,30.4,28.6,29.69,NNW,337,3.2,4.7,93,0.00,,,0.13,Kevin's Acu-Rapid 12,2014-02-06 01:04:00,
2014-02-05 20:09:00,30.4,28.6,29.70,West,270,1.7,4.2,93,0.00,,,0.13,Kevin's Acu-Rapid 12,2014-02-06 01:09:00,
2014-02-05 20:15:00,30.4,28.6,29.70,North,0,2.7,4.2,93,0.00,,,0.13,Kevin's Acu-Rapid 12,2014-02-06 01:15:00,
2014-02-05 20:20:00,30.2,28.4,29.71,North,0,3.2,5.3,93,0.00,,,0.13,Kevin's Acu-Rapid 12,2014-02-06 01:20:00,
2014-02-05 20:25:00,30.2,28.4,29.71,NE,45,3.7,5.3,93,0.00,,,0.13,Kevin's Acu-Rapid 12,2014-02-06 01:25:00,
2014-02-05 20:30:00,30.2,28.4,29.71,NW,315,3.7,4.7,93,0.00,,,0.13,Kevin's Acu-Rapid 12,2014-02-06 01:30:00,
2014-02-05 20:35:00,30.2,28.4,29.72,SSE,157,2.7,4.7,93,0.00,,,0.13,Kevin's Acu-Rapid 12,2014-02-06 01:35:00,
2014-02-05 20:40:00,30.2,28.1,29.73,North,0,2.7,4.7,92,0.00,,,0.13,Kevin's Acu-Rapid 12,2014-02-06 01:40:00,
2014-02-05 20:45:00,30.2,28.1,29.75,NE,45,1.7,4.7,92,0.00,,,0.13,Kevin's Acu-Rapid 12,2014-02-06 01:45:00,
2014-02-05 20:50:00,30.2,28.1,29.74,NNE,22,2.2,5.3,92,0.00,,,0.13,Kevin's Acu-Rapid 12,2014-02-06 01:50:00,
2014-02-05 20:56:00,30.2,28.1,29.75,West,270,5.3,6.3,92,0.00,,,0.13,Kevin's Acu-Rapid 12,2014-02-06 01:56:00,
2014-02-05 21:01:00,30.2,28.1,29.75,NW,315,4.2,6.3,92,0.00,,,0.13,Kevin's Acu-Rapid 12,2014-02-06 02:01:00,
2014-02-05 21:06:00,30.0,27.9,29.75,NNW,337,3.2,6.3,92,0.00,,,0.13,Kevin's Acu-Rapid 12,2014-02-06 02:06:00,
2014-02-05 21:11:00,30.0,27.9,29.76,NW,315,2.7,5.3,92,0.00,,,0.13,Kevin's Acu-Rapid 12,2014-02-06 02:11:00,
2014-02-05 21:17:00,30.0,27.9,29.77,NNE,22,2.7,4.7,92,0.00,,,0.13,Kevin's Acu-Rapid 12,2014-02-06 02:17:00,
2014-02-05 21:22:00,30.0,27.9,29.78,West,270,2.7,4.2,92,0.00,,,0.13,Kevin's Acu-Rapid 12,2014-02-06 02:22:00,
2014-02-05 21:27:00,30.0,27.9,29.78,SSE,157,4.7,4.7,92,0.00,,,0.13,Kevin's Acu-Rapid 12,2014-02-06 02:27:00,
2014-02-05 21:32:00,30.0,27.9,29.79,NNE,22,1.7,4.7,92,0.00,,,0.13,Kevin's Acu-Rapid 12,2014-02-06 02:32:00,
2014-02-05 21:37:00,30.0,27.9,29.78,NE,45,3.2,4.7,92,0.00,,,0.13,Kevin's Acu-Rapid 12,2014-02-06 02:37:00,
2014-02-05 21:42:00,29.8,27.7,29.78,ESE,112,6.8,6.8,92,0.00,,,0.13,Kevin's Acu-Rapid 12,2014-02-06 02:42:00,
2014-02-05 21:47:00,29.8,27.7,29.79,South,180,2.7,6.8,92,0.00,,,0.13,Kevin's Acu-Rapid 12,2014-02-06 02:47:00,
2014-02-05 21:52:00,29.8,27.7,29.80,NNE,22,2.7,6.8,92,0.00,,,0.13,Kevin's Acu-Rapid 12,2014-02-06 02:52:00,
2014-02-05 21:57:00,29.7,27.6,29.79,East,90,3.2,4.7,92,0.00,,,0.13,Kevin's Acu-Rapid 12,2014-02-06 02:57:00,
2014-02-05 22:02:00,29.7,27.6,29.79,ESE,112,1.7,4.7,92,0.00,,,0.13,Kevin's Acu-Rapid 12,2014-02-06 03:02:00,
2014-02-05 22:07:00,29.7,27.6,29.79,WNW,292,2.7,4.2,92,0.00,,,0.13,Kevin's Acu-Rapid 12,2014-02-06 03:07:00,
2014-02-05 22:13:00,29.5,27.4,29.80,NE,45,2.2,5.3,92,0.00,,,0.13,Kevin's Acu-Rapid 12,2014-02-06 03:13:00,
2014-02-05 22:18:00,29.3,27.2,29.80,WSW,247,3.2,5.3,92,0.00,,,0.13,Kevin's Acu-Rapid 12,2014-02-06 03:18:00,
2014-02-05 22:23:00,29.3,27.2,29.80,North,0,3.7,6.3,92,0.00,,,0.13,Kevin's Acu-Rapid 12,2014-02-06 03:23:00,
2014-02-05 22:28:00,28.9,26.6,29.81,SW,225,3.7,6.3,91,0.00,,,0.13,Kevin's Acu-Rapid 12,2014-02-06 03:28:00,
2014-02-05 22:33:00,28.8,26.5,29.82,NE,45,1.7,3.7,91,0.00,,,0.13,Kevin's Acu-Rapid 12,2014-02-06 03:33:00,
2014-02-05 22:38:00,28.6,26.3,29.83,ESE,112,1.7,4.2,91,0.00,,,0.13,Kevin's Acu-Rapid 12,2014-02-06 03:38:00,
2014-02-05 22:43:00,28.4,26.1,29.83,NNE,22,3.2,4.2,91,0.00,,,0.13,Kevin's Acu-Rapid 12,2014-02-06 03:43:00,
2014-02-05 22:48:00,28.2,25.9,29.83,WSW,247,1.7,4.7,91,0.00,,,0.13,Kevin's Acu-Rapid 12,2014-02-06 03:48:00,
2014-02-05 22:54:00,28.2,25.9,29.84,NNE,22,3.2,4.7,91,0.00,,,0.13,Kevin's Acu-Rapid 12,2014-02-06 03:54:00,
2014-02-05 22:59:00,27.9,25.6,29.85,NNE,22,4.7,7.8,91,0.00,,,0.13,Kevin's Acu-Rapid 12,2014-02-06 03:59:00,
2014-02-05 23:04:00,27.7,25.1,29.86,WNW,292,2.7,7.8,90,0.00,,,0.13,Kevin's Acu-Rapid 12,2014-02-06 04:04:00,
2014-02-05 23:09:00,27.5,24.9,29.87,ENE,67,2.7,5.3,90,0.00,,,0.13,Kevin's Acu-Rapid 12,2014-02-06 04:09:00,
2014-02-05 23:14:00,27.5,24.9,29.87,West,270,3.2,5.3,90,0.00,,,0.13,Kevin's Acu-Rapid 12,2014-02-06 04:14:00,
2014-02-05 23:19:00,27.1,24.5,29.88,West,270,2.2,5.8,90,0.00,,,0.13,Kevin's Acu-Rapid 12,2014-02-06 04:19:00,
2014-02-05 23:24:00,27.1,24.5,29.87,SSE,157,2.7,5.8,90,0.00,,,0.13,Kevin's Acu-Rapid 12,2014-02-06 04:24:00,
2014-02-05 23:29:00,27.1,24.5,29.88,SW,225,2.7,5.3,90,0.00,,,0.13,Kevin's Acu-Rapid 12,2014-02-06 04:29:00,
2014-02-05 23:34:00,27.0,24.4,29.88,NW,315,2.2,3.7,90,0.00,,,0.13,Kevin's Acu-Rapid 12,2014-02-06 04:34:00,
2014-02-05 23:39:00,27.0,24.4,29.88,West,270,2.2,4.7,90,0.00,,,0.13,Kevin's Acu-Rapid 12,2014-02-06 04:39:00,
2014-02-05 23:45:00,26.8,24.5,29.88,NNW,337,1.7,4.7,91,0.00,,,0.13,Kevin's Acu-Rapid 12,2014-02-06 04:45:00,
2014-02-05 23:50:00,26.8,24.5,29.88,NNE,22,2.7,4.2,91,0.00,,,0.13,Kevin's Acu-Rapid 12,2014-02-06 04:50:00,
2014-02-05 23:55:00,26.6,24.3,29.89,SSE,157,1.7,5.3,91,0.00,,,0.13,Kevin's Acu-Rapid 12,2014-02-06 04:55:00,